IOLK1: Grand River, Iola

Data processed at Fri Mar 09 2018 23:37


All information presented herein is the property of the government of the United States of America and may be revised or deleted at any time without prior notice.
Dissemination of this information without the expressed written consent of the Public Affairs Office, Tulsa District U.S. Army Corps of Engineers is strictly prohibited.
These data are gathered electronically and, as presented, have not undergone any form of quality control. These data are not guaranteed to be valid or correct.
Go to home page.
Go to station list.

Upstream stations:

Downstream station:
Previous Day
Next Day
Current Day
    
SHEF ID:       IOLK1     NEOSHO RIVER NEAR IOLA
STATION TYPE:  

               PRECIP     STAGE  RIV-FLOW  AIR-TEMP  BAT-LOAD
                   in        ft       cfs         F      volt
              Ccp-Rev   Ccp-Rev   Ccp-Rev   Ccp-Rev   Ccp-Rev
(US/Central)
03/07 00:00      0.00      6.99       171     31.16     12.73
03/07 01:00      0.00      6.99       171     30.62     12.65
03/07 02:00      0.00      6.98       164     30.34     12.65
03/07 03:00      0.00      6.98       164     29.77     12.65
03/07 04:00      0.00      6.96       149     29.50     12.65
03/07 05:00      0.00      6.96       149     29.12     12.65
03/07 06:00      0.00      6.96       149     26.77     12.57
03/07 07:00      0.00      6.95       141     25.88     12.57
03/07 08:00      0.00      6.95       141     26.89     12.97
03/07 09:00      0.00      6.95       141     30.54     14.00
03/07 10:00      0.00      6.94       134     33.90     14.16
03/07 11:00      0.00      6.94       134     36.00     14.24
03/07 12:00      0.00      6.93       128     40.08     14.16
03/07 13:00      0.00      6.95       141     43.32     14.16
03/07 14:00      0.00      6.93       128     44.27     14.08
03/07 15:00      0.00      6.92       121     45.93     14.00
03/07 16:00      0.00      6.91       114     46.10     14.00
03/07 17:00      0.00      6.91       114     46.14     13.92
03/07 18:00      0.00      6.90       108     45.02     13.84
03/07 19:00      0.00      6.90       108     40.37     13.05
03/07 20:00      0.00      6.90       108     38.48     12.97
03/07 21:00      0.00      6.90       108     38.96     12.89
03/07 22:00      0.00      6.89       102     36.05     12.81
03/07 23:00      0.00      6.89       102     32.06     12.81